Powhatan, Virginia
Current Conditions -  °F | °C
As of 12:55 AM on Sunday 23 Nov 2014 (Local Time) from KFCI Reporting Station
Clear Clear  
Wind Chill: 30°   Ceiling: Unl
Heat Index: 30°   Visibility: 10mi
Dew Point: 10°   Wind: 0mph
Humidity: 44%   Direction: NA
Pressure: 30.3"   Gusts: NA
Location:  37.54°N, 77.92°W
Report Text: KFCI 230555Z AUTO 00000KT 10SM CLR M01/M12 A3030 RMK AO1 10030 21020 57014
Loading
Personal Weather Stations






























Interactive Weather Map New forecast layout! Learn more

10-Day Weather Forecast

Advertisements
Track Severe Weather on mobile